sensor_id;sensor_type;location;lat;lon;timestamp;P1;durP1;ratioP1;P2;durP2;ratioP2
7707;SDS011;3896;48.758;8.888;2023-09-07T00:01:11;2.70;;;2.50;;
7707;SDS011;3896;48.758;8.888;2023-09-07T00:03:37;2.67;;;2.47;;
7707;SDS011;3896;48.758;8.888;2023-09-07T00:06:05;3.07;;;2.83;;
7707;SDS011;3896;48.758;8.888;2023-09-07T00:08:32;3.10;;;2.70;;
7707;SDS011;3896;48.758;8.888;2023-09-07T00:11:07;3.63;;;2.60;;
7707;SDS011;3896;48.758;8.888;2023-09-07T00:13:34;2.77;;;2.57;;
7707;SDS011;3896;48.758;8.888;2023-09-07T00:16:01;2.80;;;2.60;;
7707;SDS011;3896;48.758;8.888;2023-09-07T00:18:28;4.93;;;2.53;;
7707;SDS011;3896;48.758;8.888;2023-09-07T00:20:54;2.93;;;2.63;;
7707;SDS011;3896;48.758;8.888;2023-09-07T00:23:19;2.67;;;2.47;;
7707;SDS011;3896;48.758;8.888;2023-09-07T00:25:45;3.20;;;2.70;;
7707;SDS011;3896;48.758;8.888;2023-09-07T00:28:11;3.03;;;2.10;;
7707;SDS011;3896;48.758;8.888;2023-09-07T00:30:37;3.03;;;2.80;;
7707;SDS011;3896;48.758;8.888;2023-09-07T00:33:03;2.70;;;2.50;;
7707;SDS011;3896;48.758;8.888;2023-09-07T00:35:29;2.37;;;2.17;;
7707;SDS011;3896;48.758;8.888;2023-09-07T00:37:54;2.57;;;2.37;;
7707;SDS011;3896;48.758;8.888;2023-09-07T00:40:20;3.00;;;2.80;;
7707;SDS011;3896;48.758;8.888;2023-09-07T00:42:47;3.10;;;2.77;;
7707;SDS011;3896;48.758;8.888;2023-09-07T00:45:12;3.57;;;3.10;;
7707;SDS011;3896;48.758;8.888;2023-09-07T00:47:38;3.03;;;2.60;;
7707;SDS011;3896;48.758;8.888;2023-09-07T00:50:04;2.40;;;2.20;;
7707;SDS011;3896;48.758;8.888;2023-09-07T00:52:31;3.43;;;2.77;;
7707;SDS011;3896;48.758;8.888;2023-09-07T00:54:57;4.07;;;3.20;;
7707;SDS011;3896;48.758;8.888;2023-09-07T00:57:24;3.50;;;3.20;;
7707;SDS011;3896;48.758;8.888;2023-09-07T00:59:49;2.77;;;2.57;;
7707;SDS011;3896;48.758;8.888;2023-09-07T01:02:15;3.40;;;2.40;;
7707;SDS011;3896;48.758;8.888;2023-09-07T01:04:41;4.67;;;2.57;;
7707;SDS011;3896;48.758;8.888;2023-09-07T01:07:20;3.50;;;3.20;;
7707;SDS011;3896;48.758;8.888;2023-09-07T01:09:49;2.90;;;2.57;;
7707;SDS011;3896;48.758;8.888;2023-09-07T01:12:19;3.77;;;3.17;;
7707;SDS011;3896;48.758;8.888;2023-09-07T01:14:45;2.50;;;2.30;;
7707;SDS011;3896;48.758;8.888;2023-09-07T01:17:11;2.60;;;2.40;;
7707;SDS011;3896;48.758;8.888;2023-09-07T01:19:38;2.63;;;2.43;;
7707;SDS011;3896;48.758;8.888;2023-09-07T01:22:04;4.10;;;2.77;;
7707;SDS011;3896;48.758;8.888;2023-09-07T01:24:31;2.30;;;2.20;;
7707;SDS011;3896;48.758;8.888;2023-09-07T01:26:59;2.90;;;2.67;;
7707;SDS011;3896;48.758;8.888;2023-09-07T01:29:28;3.67;;;2.87;;
7707;SDS011;3896;48.758;8.888;2023-09-07T01:31:55;3.37;;;2.40;;
7707;SDS011;3896;48.758;8.888;2023-09-07T01:34:22;3.20;;;3.00;;
7707;SDS011;3896;48.758;8.888;2023-09-07T01:36:48;3.13;;;2.73;;
7707;SDS011;3896;48.758;8.888;2023-09-07T01:39:14;3.27;;;2.97;;
7707;SDS011;3896;48.758;8.888;2023-09-07T01:41:40;2.67;;;2.47;;
7707;SDS011;3896;48.758;8.888;2023-09-07T01:44:06;3.20;;;2.90;;
7707;SDS011;3896;48.758;8.888;2023-09-07T01:46:31;3.03;;;2.73;;
7707;SDS011;3896;48.758;8.888;2023-09-07T01:48:57;3.30;;;3.00;;
7707;SDS011;3896;48.758;8.888;2023-09-07T01:51:22;4.17;;;2.60;;
7707;SDS011;3896;48.758;8.888;2023-09-07T01:53:48;3.37;;;2.90;;
7707;SDS011;3896;48.758;8.888;2023-09-07T01:56:14;4.17;;;2.83;;
7707;SDS011;3896;48.758;8.888;2023-09-07T01:58:41;3.07;;;2.77;;
7707;SDS011;3896;48.758;8.888;2023-09-07T02:01:07;3.63;;;3.33;;
7707;SDS011;3896;48.758;8.888;2023-09-07T02:03:45;3.03;;;2.80;;
7707;SDS011;3896;48.758;8.888;2023-09-07T02:06:11;3.03;;;2.70;;
7707;SDS011;3896;48.758;8.888;2023-09-07T02:08:36;2.70;;;2.50;;
7707;SDS011;3896;48.758;8.888;2023-09-07T02:11:02;5.27;;;2.60;;
7707;SDS011;3896;48.758;8.888;2023-09-07T02:27:36;2.70;;;2.50;;
7707;SDS011;3896;48.758;8.888;2023-09-07T02:30:03;3.83;;;3.23;;
7707;SDS011;3896;48.758;8.888;2023-09-07T02:32:29;3.40;;;2.87;;
7707;SDS011;3896;48.758;8.888;2023-09-07T02:34:54;2.97;;;2.60;;
7707;SDS011;3896;48.758;8.888;2023-09-07T02:37:20;3.77;;;3.10;;
7707;SDS011;3896;48.758;8.888;2023-09-07T02:39:54;3.13;;;2.80;;
7707;SDS011;3896;48.758;8.888;2023-09-07T02:42:19;3.20;;;2.90;;
7707;SDS011;3896;48.758;8.888;2023-09-07T02:44:45;3.63;;;2.67;;
7707;SDS011;3896;48.758;8.888;2023-09-07T02:47:10;2.97;;;2.63;;
7707;SDS011;3896;48.758;8.888;2023-09-07T02:49:36;2.97;;;2.40;;
7707;SDS011;3896;48.758;8.888;2023-09-07T02:52:02;5.20;;;2.77;;
7707;SDS011;3896;48.758;8.888;2023-09-07T02:54:27;2.90;;;2.60;;
7707;SDS011;3896;48.758;8.888;2023-09-07T02:56:54;3.03;;;2.70;;
7707;SDS011;3896;48.758;8.888;2023-09-07T02:59:19;3.67;;;2.60;;
7707;SDS011;3896;48.758;8.888;2023-09-07T03:01:45;2.60;;;2.40;;
7707;SDS011;3896;48.758;8.888;2023-09-07T03:04:10;6.13;;;2.83;;
7707;SDS011;3896;48.758;8.888;2023-09-07T03:06:36;2.40;;;2.17;;
7707;SDS011;3896;48.758;8.888;2023-09-07T03:09:01;3.93;;;2.50;;
7707;SDS011;3896;48.758;8.888;2023-09-07T03:11:27;4.17;;;2.80;;
7707;SDS011;3896;48.758;8.888;2023-09-07T03:13:58;2.80;;;2.60;;
7707;SDS011;3896;48.758;8.888;2023-09-07T03:16:24;5.27;;;2.83;;
7707;SDS011;3896;48.758;8.888;2023-09-07T03:18:49;3.03;;;2.83;;
7707;SDS011;3896;48.758;8.888;2023-09-07T03:21:15;3.53;;;2.90;;
7707;SDS011;3896;48.758;8.888;2023-09-07T03:23:40;2.97;;;2.77;;
7707;SDS011;3896;48.758;8.888;2023-09-07T03:26:09;3.27;;;2.90;;
7707;SDS011;3896;48.758;8.888;2023-09-07T03:28:34;6.70;;;3.27;;
7707;SDS011;3896;48.758;8.888;2023-09-07T03:31:00;3.10;;;2.67;;
7707;SDS011;3896;48.758;8.888;2023-09-07T03:33:26;3.70;;;3.20;;
7707;SDS011;3896;48.758;8.888;2023-09-07T03:35:51;3.27;;;2.97;;
7707;SDS011;3896;48.758;8.888;2023-09-07T03:38:17;3.23;;;2.67;;
7707;SDS011;3896;48.758;8.888;2023-09-07T03:40:42;3.37;;;2.60;;
7707;SDS011;3896;48.758;8.888;2023-09-07T03:43:08;2.43;;;2.27;;
7707;SDS011;3896;48.758;8.888;2023-09-07T03:45:34;3.00;;;2.63;;
7707;SDS011;3896;48.758;8.888;2023-09-07T03:48:00;2.90;;;2.70;;
7707;SDS011;3896;48.758;8.888;2023-09-07T03:50:25;3.80;;;3.40;;
7707;SDS011;3896;48.758;8.888;2023-09-07T03:52:51;5.77;;;2.97;;
7707;SDS011;3896;48.758;8.888;2023-09-07T03:55:16;4.67;;;2.70;;
7707;SDS011;3896;48.758;8.888;2023-09-07T03:57:42;3.43;;;3.03;;
7707;SDS011;3896;48.758;8.888;2023-09-07T04:00:07;4.00;;;2.63;;
7707;SDS011;3896;48.758;8.888;2023-09-07T04:02:34;2.83;;;2.63;;
7707;SDS011;3896;48.758;8.888;2023-09-07T04:05:00;2.87;;;2.67;;
7707;SDS011;3896;48.758;8.888;2023-09-07T04:07:30;2.97;;;2.70;;
7707;SDS011;3896;48.758;8.888;2023-09-07T04:09:56;3.47;;;3.17;;
7707;SDS011;3896;48.758;8.888;2023-09-07T04:12:21;3.30;;;2.93;;
7707;SDS011;3896;48.758;8.888;2023-09-07T04:14:47;2.63;;;2.43;;
7707;SDS011;3896;48.758;8.888;2023-09-07T04:17:12;3.93;;;2.90;;
7707;SDS011;3896;48.758;8.888;2023-09-07T04:19:38;2.90;;;2.60;;
7707;SDS011;3896;48.758;8.888;2023-09-07T04:22:03;3.03;;;2.77;;
7707;SDS011;3896;48.758;8.888;2023-09-07T04:24:29;3.60;;;2.70;;
7707;SDS011;3896;48.758;8.888;2023-09-07T04:26:58;4.10;;;3.13;;
7707;SDS011;3896;48.758;8.888;2023-09-07T04:29:25;3.00;;;2.60;;
7707;SDS011;3896;48.758;8.888;2023-09-07T04:31:51;3.13;;;2.53;;
7707;SDS011;3896;48.758;8.888;2023-09-07T04:34:17;2.90;;;2.67;;
7707;SDS011;3896;48.758;8.888;2023-09-07T04:36:42;3.00;;;2.80;;
7707;SDS011;3896;48.758;8.888;2023-09-07T04:39:08;3.67;;;3.30;;
7707;SDS011;3896;48.758;8.888;2023-09-07T04:41:33;3.13;;;2.73;;
7707;SDS011;3896;48.758;8.888;2023-09-07T04:43:59;2.87;;;2.63;;
7707;SDS011;3896;48.758;8.888;2023-09-07T04:46:24;3.93;;;2.90;;
7707;SDS011;3896;48.758;8.888;2023-09-07T04:48:50;3.90;;;2.90;;
7707;SDS011;3896;48.758;8.888;2023-09-07T04:51:15;4.20;;;2.77;;
7707;SDS011;3896;48.758;8.888;2023-09-07T04:53:41;5.90;;;3.17;;
7707;SDS011;3896;48.758;8.888;2023-09-07T04:56:07;3.93;;;2.93;;
7707;SDS011;3896;48.758;8.888;2023-09-07T04:58:33;3.63;;;3.00;;
7707;SDS011;3896;48.758;8.888;2023-09-07T05:01:03;3.17;;;2.90;;
7707;SDS011;3896;48.758;8.888;2023-09-07T05:03:30;4.97;;;3.37;;
7707;SDS011;3896;48.758;8.888;2023-09-07T05:05:56;5.57;;;3.57;;
7707;SDS011;3896;48.758;8.888;2023-09-07T05:08:22;3.87;;;3.43;;
7707;SDS011;3896;48.758;8.888;2023-09-07T05:10:54;4.63;;;3.43;;
7707;SDS011;3896;48.758;8.888;2023-09-07T05:13:21;3.90;;;3.50;;
7707;SDS011;3896;48.758;8.888;2023-09-07T05:15:47;3.50;;;3.13;;
7707;SDS011;3896;48.758;8.888;2023-09-07T05:18:14;3.37;;;2.70;;
7707;SDS011;3896;48.758;8.888;2023-09-07T05:20:39;3.20;;;2.90;;
7707;SDS011;3896;48.758;8.888;2023-09-07T05:23:05;2.97;;;2.67;;
7707;SDS011;3896;48.758;8.888;2023-09-07T05:25:30;4.00;;;3.13;;
7707;SDS011;3896;48.758;8.888;2023-09-07T05:27:56;3.50;;;2.87;;
7707;SDS011;3896;48.758;8.888;2023-09-07T05:30:22;5.70;;;3.30;;
7707;SDS011;3896;48.758;8.888;2023-09-07T05:32:48;4.47;;;2.87;;
7707;SDS011;3896;48.758;8.888;2023-09-07T05:35:13;3.30;;;3.00;;
7707;SDS011;3896;48.758;8.888;2023-09-07T05:37:41;4.47;;;3.33;;
7707;SDS011;3896;48.758;8.888;2023-09-07T05:40:07;3.83;;;3.30;;
7707;SDS011;3896;48.758;8.888;2023-09-07T05:42:33;3.60;;;3.27;;
7707;SDS011;3896;48.758;8.888;2023-09-07T05:44:58;3.43;;;3.13;;
7707;SDS011;3896;48.758;8.888;2023-09-07T05:47:24;4.00;;;3.10;;
7707;SDS011;3896;48.758;8.888;2023-09-07T05:49:51;3.63;;;3.10;;
7707;SDS011;3896;48.758;8.888;2023-09-07T05:52:16;3.30;;;3.00;;
7707;SDS011;3896;48.758;8.888;2023-09-07T05:54:42;5.03;;;3.80;;
7707;SDS011;3896;48.758;8.888;2023-09-07T05:57:08;4.73;;;3.53;;
7707;SDS011;3896;48.758;8.888;2023-09-07T05:59:33;4.80;;;3.50;;
7707;SDS011;3896;48.758;8.888;2023-09-07T06:01:59;5.20;;;4.53;;
7707;SDS011;3896;48.758;8.888;2023-09-07T06:04:25;3.77;;;3.43;;
7707;SDS011;3896;48.758;8.888;2023-09-07T06:06:50;5.77;;;3.97;;
7707;SDS011;3896;48.758;8.888;2023-09-07T06:09:16;4.73;;;4.13;;
7707;SDS011;3896;48.758;8.888;2023-09-07T06:11:42;4.83;;;4.20;;
7707;SDS011;3896;48.758;8.888;2023-09-07T06:14:08;4.90;;;4.13;;
7707;SDS011;3896;48.758;8.888;2023-09-07T06:16:33;8.37;;;3.90;;
7707;SDS011;3896;48.758;8.888;2023-09-07T06:19:00;6.17;;;4.27;;
7707;SDS011;3896;48.758;8.888;2023-09-07T06:21:25;5.30;;;4.40;;
7707;SDS011;3896;48.758;8.888;2023-09-07T06:23:51;7.03;;;4.27;;
7707;SDS011;3896;48.758;8.888;2023-09-07T06:26:16;6.47;;;4.83;;
7707;SDS011;3896;48.758;8.888;2023-09-07T06:28:43;7.77;;;5.00;;
7707;SDS011;3896;48.758;8.888;2023-09-07T06:31:08;7.97;;;4.07;;
7707;SDS011;3896;48.758;8.888;2023-09-07T06:33:34;5.20;;;4.47;;
7707;SDS011;3896;48.758;8.888;2023-09-07T06:36:00;5.13;;;4.30;;
7707;SDS011;3896;48.758;8.888;2023-09-07T06:38:27;6.30;;;4.83;;
7707;SDS011;3896;48.758;8.888;2023-09-07T06:40:53;5.73;;;5.07;;
7707;SDS011;3896;48.758;8.888;2023-09-07T06:43:18;5.60;;;5.00;;
7707;SDS011;3896;48.758;8.888;2023-09-07T06:45:44;9.17;;;5.60;;
7707;SDS011;3896;48.758;8.888;2023-09-07T06:48:09;6.30;;;4.90;;
7707;SDS011;3896;48.758;8.888;2023-09-07T06:50:35;6.67;;;4.90;;
7707;SDS011;3896;48.758;8.888;2023-09-07T06:53:01;8.83;;;5.47;;
7707;SDS011;3896;48.758;8.888;2023-09-07T06:55:27;7.13;;;5.90;;
7707;SDS011;3896;48.758;8.888;2023-09-07T06:57:55;5.50;;;4.90;;
7707;SDS011;3896;48.758;8.888;2023-09-07T07:00:20;7.73;;;5.63;;
7707;SDS011;3896;48.758;8.888;2023-09-07T07:02:46;7.73;;;5.13;;
7707;SDS011;3896;48.758;8.888;2023-09-07T07:05:12;7.67;;;5.27;;
7707;SDS011;3896;48.758;8.888;2023-09-07T07:07:38;7.13;;;5.00;;
7707;SDS011;3896;48.758;8.888;2023-09-07T07:10:04;7.90;;;5.20;;
7707;SDS011;3896;48.758;8.888;2023-09-07T07:12:31;6.90;;;5.40;;
7707;SDS011;3896;48.758;8.888;2023-09-07T07:14:59;10.73;;;6.77;;
7707;SDS011;3896;48.758;8.888;2023-09-07T07:17:26;9.60;;;7.43;;
7707;SDS011;3896;48.758;8.888;2023-09-07T07:19:51;8.40;;;7.20;;
7707;SDS011;3896;48.758;8.888;2023-09-07T07:22:17;8.00;;;6.80;;
7707;SDS011;3896;48.758;8.888;2023-09-07T07:24:42;8.80;;;7.47;;
7707;SDS011;3896;48.758;8.888;2023-09-07T07:27:08;11.67;;;7.37;;
7707;SDS011;3896;48.758;8.888;2023-09-07T07:29:36;7.47;;;6.67;;
7707;SDS011;3896;48.758;8.888;2023-09-07T07:32:02;7.20;;;6.50;;
7707;SDS011;3896;48.758;8.888;2023-09-07T07:34:28;6.97;;;6.33;;
7707;SDS011;3896;48.758;8.888;2023-09-07T07:36:54;6.97;;;6.27;;
7707;SDS011;3896;48.758;8.888;2023-09-07T07:39:19;8.47;;;6.50;;
7707;SDS011;3896;48.758;8.888;2023-09-07T07:41:45;7.77;;;6.30;;
7707;SDS011;3896;48.758;8.888;2023-09-07T07:44:11;8.17;;;6.70;;
7707;SDS011;3896;48.758;8.888;2023-09-07T07:46:36;6.37;;;5.77;;
7707;SDS011;3896;48.758;8.888;2023-09-07T07:49:02;6.80;;;5.97;;
7707;SDS011;3896;48.758;8.888;2023-09-07T07:51:27;6.53;;;5.57;;
7707;SDS011;3896;48.758;8.888;2023-09-07T07:53:54;7.27;;;6.00;;
7707;SDS011;3896;48.758;8.888;2023-09-07T07:56:21;7.97;;;5.97;;
7707;SDS011;3896;48.758;8.888;2023-09-07T07:58:46;7.97;;;5.60;;
7707;SDS011;3896;48.758;8.888;2023-09-07T08:01:18;8.23;;;6.13;;
7707;SDS011;3896;48.758;8.888;2023-09-07T08:03:48;7.07;;;5.80;;
7707;SDS011;3896;48.758;8.888;2023-09-07T08:06:14;8.83;;;5.37;;
7707;SDS011;3896;48.758;8.888;2023-09-07T08:08:39;7.33;;;5.77;;
7707;SDS011;3896;48.758;8.888;2023-09-07T08:11:05;6.37;;;5.50;;
7707;SDS011;3896;48.758;8.888;2023-09-07T08:13:32;6.13;;;5.37;;
7707;SDS011;3896;48.758;8.888;2023-09-07T08:15:59;7.97;;;5.83;;
7707;SDS011;3896;48.758;8.888;2023-09-07T08:18:31;7.40;;;6.00;;
7707;SDS011;3896;48.758;8.888;2023-09-07T08:20:59;11.53;;;6.27;;
7707;SDS011;3896;48.758;8.888;2023-09-07T08:23:25;6.67;;;5.33;;
7707;SDS011;3896;48.758;8.888;2023-09-07T08:25:51;6.20;;;5.60;;
7707;SDS011;3896;48.758;8.888;2023-09-07T08:28:17;7.10;;;5.67;;
7707;SDS011;3896;48.758;8.888;2023-09-07T08:30:44;5.90;;;5.00;;
7707;SDS011;3896;48.758;8.888;2023-09-07T08:33:09;6.80;;;5.73;;
7707;SDS011;3896;48.758;8.888;2023-09-07T08:35:35;6.00;;;5.40;;
7707;SDS011;3896;48.758;8.888;2023-09-07T08:38:07;9.17;;;6.07;;
7707;SDS011;3896;48.758;8.888;2023-09-07T08:40:33;6.20;;;5.23;;
7707;SDS011;3896;48.758;8.888;2023-09-07T08:43:01;8.03;;;5.00;;
7707;SDS011;3896;48.758;8.888;2023-09-07T08:45:29;7.23;;;5.63;;
7707;SDS011;3896;48.758;8.888;2023-09-07T08:47:55;7.97;;;6.33;;
7707;SDS011;3896;48.758;8.888;2023-09-07T08:50:22;5.43;;;4.43;;
7707;SDS011;3896;48.758;8.888;2023-09-07T08:52:48;5.37;;;4.87;;
7707;SDS011;3896;48.758;8.888;2023-09-07T08:55:17;8.70;;;5.13;;
7707;SDS011;3896;48.758;8.888;2023-09-07T08:57:43;5.30;;;4.70;;
7707;SDS011;3896;48.758;8.888;2023-09-07T09:00:08;5.80;;;5.10;;
7707;SDS011;3896;48.758;8.888;2023-09-07T09:02:40;5.10;;;4.60;;
7707;SDS011;3896;48.758;8.888;2023-09-07T09:05:06;5.60;;;4.30;;
7707;SDS011;3896;48.758;8.888;2023-09-07T09:07:34;4.70;;;4.30;;
7707;SDS011;3896;48.758;8.888;2023-09-07T09:10:04;4.73;;;4.27;;
7707;SDS011;3896;48.758;8.888;2023-09-07T09:12:31;5.13;;;4.33;;
7707;SDS011;3896;48.758;8.888;2023-09-07T09:14:56;7.23;;;4.50;;
7707;SDS011;3896;48.758;8.888;2023-09-07T09:17:24;5.73;;;4.70;;
7707;SDS011;3896;48.758;8.888;2023-09-07T09:19:50;4.93;;;4.53;;
7707;SDS011;3896;48.758;8.888;2023-09-07T09:22:15;6.90;;;4.57;;
7707;SDS011;3896;48.758;8.888;2023-09-07T09:24:42;5.60;;;4.50;;
7707;SDS011;3896;48.758;8.888;2023-09-07T09:27:07;4.37;;;3.97;;
7707;SDS011;3896;48.758;8.888;2023-09-07T09:29:33;6.53;;;4.03;;
7707;SDS011;3896;48.758;8.888;2023-09-07T09:32:03;5.60;;;4.13;;
7707;SDS011;3896;48.758;8.888;2023-09-07T09:34:33;4.30;;;3.90;;
7707;SDS011;3896;48.758;8.888;2023-09-07T09:36:59;5.17;;;4.50;;
7707;SDS011;3896;48.758;8.888;2023-09-07T09:39:26;4.73;;;4.33;;
7707;SDS011;3896;48.758;8.888;2023-09-07T09:41:52;4.97;;;3.80;;
7707;SDS011;3896;48.758;8.888;2023-09-07T09:44:18;4.70;;;4.30;;
7707;SDS011;3896;48.758;8.888;2023-09-07T09:46:46;4.87;;;4.20;;
7707;SDS011;3896;48.758;8.888;2023-09-07T09:49:12;6.67;;;4.23;;
7707;SDS011;3896;48.758;8.888;2023-09-07T09:51:40;6.73;;;4.50;;
7707;SDS011;3896;48.758;8.888;2023-09-07T09:54:06;4.07;;;3.67;;
7707;SDS011;3896;48.758;8.888;2023-09-07T09:56:34;7.67;;;3.80;;
7707;SDS011;3896;48.758;8.888;2023-09-07T09:59:01;5.17;;;3.87;;
7707;SDS011;3896;48.758;8.888;2023-09-07T10:01:26;5.50;;;4.00;;
7707;SDS011;3896;48.758;8.888;2023-09-07T10:03:54;4.30;;;4.00;;
7707;SDS011;3896;48.758;8.888;2023-09-07T10:06:25;5.77;;;4.00;;
7707;SDS011;3896;48.758;8.888;2023-09-07T10:08:59;4.77;;;3.77;;
7707;SDS011;3896;48.758;8.888;2023-09-07T10:11:36;4.93;;;3.57;;
7707;SDS011;3896;48.758;8.888;2023-09-07T10:14:03;3.87;;;3.53;;
7707;SDS011;3896;48.758;8.888;2023-09-07T10:16:53;3.80;;;3.50;;
7707;SDS011;3896;48.758;8.888;2023-09-07T10:19:24;3.60;;;3.30;;
7707;SDS011;3896;48.758;8.888;2023-09-07T10:21:53;4.00;;;3.63;;
7707;SDS011;3896;48.758;8.888;2023-09-07T10:24:29;6.00;;;3.93;;
7707;SDS011;3896;48.758;8.888;2023-09-07T10:27:04;4.03;;;3.70;;
7707;SDS011;3896;48.758;8.888;2023-09-07T10:32:17;4.43;;;4.10;;
7707;SDS011;3896;48.758;8.888;2023-09-07T10:34:43;3.90;;;3.60;;
7707;SDS011;3896;48.758;8.888;2023-09-07T10:37:15;4.17;;;3.83;;
7707;SDS011;3896;48.758;8.888;2023-09-07T10:39:41;3.63;;;3.27;;
7707;SDS011;3896;48.758;8.888;2023-09-07T10:42:08;4.60;;;3.78;;
7707;SDS011;3896;48.758;8.888;2023-09-07T10:44:47;3.80;;;3.50;;
7707;SDS011;3896;48.758;8.888;2023-09-07T10:47:13;4.10;;;3.70;;
7707;SDS011;3896;48.758;8.888;2023-09-07T10:49:38;4.50;;;3.33;;
7707;SDS011;3896;48.758;8.888;2023-09-07T10:52:04;4.72;;;3.83;;
7707;SDS011;3896;48.758;8.888;2023-09-07T10:54:30;4.18;;;3.47;;
7707;SDS011;3896;48.758;8.888;2023-09-07T10:56:55;4.60;;;3.83;;
7707;SDS011;3896;48.758;8.888;2023-09-07T10:59:23;5.15;;;3.22;;
7707;SDS011;3896;48.758;8.888;2023-09-07T11:01:52;5.28;;;4.30;;
7707;SDS011;3896;48.758;8.888;2023-09-07T11:04:18;4.30;;;3.90;;
7707;SDS011;3896;48.758;8.888;2023-09-07T11:06:45;5.07;;;3.90;;
7707;SDS011;3896;48.758;8.888;2023-09-07T11:09:11;3.80;;;3.42;;
7707;SDS011;3896;48.758;8.888;2023-09-07T11:11:36;3.50;;;3.20;;
7707;SDS011;3896;48.758;8.888;2023-09-07T11:14:05;4.43;;;4.03;;
7707;SDS011;3896;48.758;8.888;2023-09-07T11:16:32;4.25;;;3.95;;
7707;SDS011;3896;48.758;8.888;2023-09-07T11:19:03;4.43;;;4.05;;
7707;SDS011;3896;48.758;8.888;2023-09-07T11:21:29;4.22;;;3.65;;
7707;SDS011;3896;48.758;8.888;2023-09-07T11:23:57;3.95;;;3.55;;
7707;SDS011;3896;48.758;8.888;2023-09-07T11:26:23;4.93;;;3.88;;
7707;SDS011;3896;48.758;8.888;2023-09-07T11:28:48;3.28;;;2.97;;
7707;SDS011;3896;48.758;8.888;2023-09-07T11:31:17;4.45;;;3.33;;
7707;SDS011;3896;48.758;8.888;2023-09-07T11:33:45;4.28;;;3.53;;
7707;SDS011;3896;48.758;8.888;2023-09-07T11:36:13;4.00;;;3.67;;
7707;SDS011;3896;48.758;8.888;2023-09-07T11:38:42;3.85;;;3.50;;
7707;SDS011;3896;48.758;8.888;2023-09-07T11:41:08;4.82;;;4.32;;
7707;SDS011;3896;48.758;8.888;2023-09-07T11:43:33;4.20;;;3.50;;
7707;SDS011;3896;48.758;8.888;2023-09-07T11:46:01;3.92;;;3.50;;
7707;SDS011;3896;48.758;8.888;2023-09-07T11:48:28;6.47;;;3.63;;
7707;SDS011;3896;48.758;8.888;2023-09-07T11:50:54;4.15;;;3.85;;
7707;SDS011;3896;48.758;8.888;2023-09-07T11:53:20;3.60;;;3.30;;
7707;SDS011;3896;48.758;8.888;2023-09-07T11:55:45;3.38;;;3.10;;
7707;SDS011;3896;48.758;8.888;2023-09-07T11:58:11;4.63;;;3.47;;
7707;SDS011;3896;48.758;8.888;2023-09-07T12:00:36;4.35;;;3.40;;
7707;SDS011;3896;48.758;8.888;2023-09-07T12:03:02;3.70;;;3.40;;
7707;SDS011;3896;48.758;8.888;2023-09-07T12:05:28;4.63;;;4.22;;
7707;SDS011;3896;48.758;8.888;2023-09-07T12:07:53;6.82;;;3.72;;
7707;SDS011;3896;48.758;8.888;2023-09-07T12:10:19;3.80;;;3.30;;
7707;SDS011;3896;48.758;8.888;2023-09-07T12:12:45;3.80;;;3.50;;
7707;SDS011;3896;48.758;8.888;2023-09-07T12:15:10;4.95;;;3.60;;
7707;SDS011;3896;48.758;8.888;2023-09-07T12:17:36;3.90;;;3.38;;
7707;SDS011;3896;48.758;8.888;2023-09-07T12:20:02;4.05;;;3.65;;
7707;SDS011;3896;48.758;8.888;2023-09-07T12:22:30;3.08;;;2.85;;
7707;SDS011;3896;48.758;8.888;2023-09-07T12:24:55;3.75;;;3.45;;
7707;SDS011;3896;48.758;8.888;2023-09-07T12:27:21;5.97;;;3.60;;
7707;SDS011;3896;48.758;8.888;2023-09-07T12:29:47;3.45;;;3.20;;
7707;SDS011;3896;48.758;8.888;2023-09-07T12:32:13;5.45;;;3.70;;
7707;SDS011;3896;48.758;8.888;2023-09-07T12:34:39;5.25;;;3.78;;
7707;SDS011;3896;48.758;8.888;2023-09-07T12:37:05;3.22;;;3.03;;
7707;SDS011;3896;48.758;8.888;2023-09-07T12:39:31;3.47;;;3.03;;
7707;SDS011;3896;48.758;8.888;2023-09-07T12:41:57;4.15;;;3.80;;
7707;SDS011;3896;48.758;8.888;2023-09-07T12:44:23;3.92;;;3.63;;
7707;SDS011;3896;48.758;8.888;2023-09-07T12:46:48;4.75;;;3.47;;
7707;SDS011;3896;48.758;8.888;2023-09-07T12:49:14;5.22;;;3.75;;
7707;SDS011;3896;48.758;8.888;2023-09-07T12:51:43;4.13;;;3.60;;
7707;SDS011;3896;48.758;8.888;2023-09-07T12:54:10;4.95;;;3.75;;
7707;SDS011;3896;48.758;8.888;2023-09-07T12:56:35;4.28;;;3.80;;
7707;SDS011;3896;48.758;8.888;2023-09-07T12:59:01;4.40;;;4.03;;
7707;SDS011;3896;48.758;8.888;2023-09-07T13:01:28;3.83;;;3.50;;
7707;SDS011;3896;48.758;8.888;2023-09-07T13:03:54;6.93;;;4.18;;
7707;SDS011;3896;48.758;8.888;2023-09-07T13:06:20;4.50;;;3.90;;
7707;SDS011;3896;48.758;8.888;2023-09-07T13:08:45;3.55;;;3.25;;
7707;SDS011;3896;48.758;8.888;2023-09-07T13:11:11;4.00;;;3.63;;
7707;SDS011;3896;48.758;8.888;2023-09-07T13:13:37;4.32;;;3.90;;
7707;SDS011;3896;48.758;8.888;2023-09-07T13:16:03;3.75;;;3.45;;
7707;SDS011;3896;48.758;8.888;2023-09-07T13:18:29;4.25;;;3.35;;
7707;SDS011;3896;48.758;8.888;2023-09-07T13:20:55;3.58;;;3.25;;
7707;SDS011;3896;48.758;8.888;2023-09-07T13:23:30;3.80;;;3.50;;
7707;SDS011;3896;48.758;8.888;2023-09-07T13:25:56;3.75;;;3.35;;
7707;SDS011;3896;48.758;8.888;2023-09-07T13:28:22;4.20;;;3.88;;
7707;SDS011;3896;48.758;8.888;2023-09-07T13:30:50;5.85;;;3.63;;
7707;SDS011;3896;48.758;8.888;2023-09-07T13:33:15;3.92;;;3.63;;
7707;SDS011;3896;48.758;8.888;2023-09-07T13:35:41;3.78;;;3.40;;
7707;SDS011;3896;48.758;8.888;2023-09-07T13:38:07;6.63;;;3.55;;
7707;SDS011;3896;48.758;8.888;2023-09-07T13:40:32;7.57;;;3.70;;
7707;SDS011;3896;48.758;8.888;2023-09-07T13:42:59;3.67;;;3.03;;
7707;SDS011;3896;48.758;8.888;2023-09-07T13:45:24;5.30;;;4.05;;
7707;SDS011;3896;48.758;8.888;2023-09-07T13:47:50;4.35;;;3.15;;
7707;SDS011;3896;48.758;8.888;2023-09-07T13:50:16;3.58;;;3.13;;
7707;SDS011;3896;48.758;8.888;2023-09-07T13:52:41;3.10;;;2.88;;
7707;SDS011;3896;48.758;8.888;2023-09-07T13:55:07;4.20;;;3.15;;
7707;SDS011;3896;48.758;8.888;2023-09-07T13:57:33;3.55;;;3.25;;
7707;SDS011;3896;48.758;8.888;2023-09-07T13:59:59;3.60;;;3.17;;
7707;SDS011;3896;48.758;8.888;2023-09-07T14:02:25;3.40;;;3.10;;
7707;SDS011;3896;48.758;8.888;2023-09-07T14:04:52;3.50;;;3.20;;
7707;SDS011;3896;48.758;8.888;2023-09-07T14:07:17;3.47;;;3.17;;
7707;SDS011;3896;48.758;8.888;2023-09-07T14:09:43;5.97;;;3.08;;
7707;SDS011;3896;48.758;8.888;2023-09-07T14:12:09;3.33;;;2.88;;
7707;SDS011;3896;48.758;8.888;2023-09-07T14:14:34;4.90;;;2.42;;
7707;SDS011;3896;48.758;8.888;2023-09-07T14:17:01;4.90;;;3.03;;
7707;SDS011;3896;48.758;8.888;2023-09-07T14:19:26;2.85;;;2.65;;
7707;SDS011;3896;48.758;8.888;2023-09-07T14:21:55;3.05;;;2.55;;
7707;SDS011;3896;48.758;8.888;2023-09-07T14:24:24;3.38;;;3.00;;
7707;SDS011;3896;48.758;8.888;2023-09-07T14:26:50;2.92;;;2.72;;
7707;SDS011;3896;48.758;8.888;2023-09-07T14:29:16;3.08;;;2.88;;
7707;SDS011;3896;48.758;8.888;2023-09-07T14:31:42;3.22;;;2.72;;
7707;SDS011;3896;48.758;8.888;2023-09-07T14:34:08;2.92;;;2.72;;
7707;SDS011;3896;48.758;8.888;2023-09-07T14:36:34;2.70;;;2.50;;
7707;SDS011;3896;48.758;8.888;2023-09-07T14:39:00;3.03;;;2.72;;
7707;SDS011;3896;48.758;8.888;2023-09-07T14:41:26;2.90;;;2.70;;
7707;SDS011;3896;48.758;8.888;2023-09-07T14:43:53;2.75;;;2.55;;
7707;SDS011;3896;48.758;8.888;2023-09-07T14:46:18;3.28;;;2.95;;
7707;SDS011;3896;48.758;8.888;2023-09-07T14:48:44;2.85;;;2.65;;
7707;SDS011;3896;48.758;8.888;2023-09-07T14:51:12;4.82;;;2.95;;
7707;SDS011;3896;48.758;8.888;2023-09-07T14:53:38;2.38;;;2.17;;
7707;SDS011;3896;48.758;8.888;2023-09-07T14:56:03;3.10;;;2.90;;
7707;SDS011;3896;48.758;8.888;2023-09-07T14:58:29;3.50;;;2.42;;
7707;SDS011;3896;48.758;8.888;2023-09-07T15:00:55;2.78;;;2.58;;
7707;SDS011;3896;48.758;8.888;2023-09-07T15:03:20;4.32;;;2.92;;
7707;SDS011;3896;48.758;8.888;2023-09-07T15:05:46;3.38;;;3.15;;
7707;SDS011;3896;48.758;8.888;2023-09-07T15:08:11;3.03;;;2.70;;
7707;SDS011;3896;48.758;8.888;2023-09-07T15:10:37;4.80;;;3.03;;
7707;SDS011;3896;48.758;8.888;2023-09-07T15:13:02;2.92;;;2.72;;
7707;SDS011;3896;48.758;8.888;2023-09-07T15:15:28;2.88;;;2.67;;
7707;SDS011;3896;48.758;8.888;2023-09-07T15:17:58;2.88;;;2.67;;
7707;SDS011;3896;48.758;8.888;2023-09-07T15:20:24;6.45;;;2.65;;
7707;SDS011;3896;48.758;8.888;2023-09-07T15:22:49;3.38;;;3.17;;
7707;SDS011;3896;48.758;8.888;2023-09-07T15:25:15;3.53;;;2.90;;
7707;SDS011;3896;48.758;8.888;2023-09-07T15:27:43;2.90;;;2.70;;